sensor_id;sensor_type;location;lat;lon;timestamp;pressure;altitude;pressure_sealevel;temperature;humidity
21863;BME280;11096;51.338;12.524;2023-02-23T00:00:30;99783.91;;;6.40;100.00
21863;BME280;11096;51.338;12.524;2023-02-23T00:02:58;99785.19;;;6.47;100.00
21863;BME280;11096;51.338;12.524;2023-02-23T00:05:27;99786.47;;;6.40;100.00
21863;BME280;11096;51.338;12.524;2023-02-23T00:07:53;99787.44;;;6.23;100.00
21863;BME280;11096;51.338;12.524;2023-02-23T00:10:19;99782.72;;;5.99;100.00
21863;BME280;11096;51.338;12.524;2023-02-23T00:12:46;99782.63;;;5.85;100.00
21863;BME280;11096;51.338;12.524;2023-02-23T00:15:13;99787.31;;;5.94;100.00
21863;BME280;11096;51.338;12.524;2023-02-23T00:17:40;99779.06;;;6.04;100.00
21863;BME280;11096;51.338;12.524;2023-02-23T00:20:08;99780.81;;;6.03;100.00
21863;BME280;11096;51.338;12.524;2023-02-23T00:22:38;99774.00;;;6.02;100.00
21863;BME280;11096;51.338;12.524;2023-02-23T00:25:07;99774.00;;;5.86;100.00
21863;BME280;11096;51.338;12.524;2023-02-23T00:27:35;99776.16;;;5.62;100.00
21863;BME280;11096;51.338;12.524;2023-02-23T00:30:03;99770.75;;;5.67;100.00
21863;BME280;11096;51.338;12.524;2023-02-23T00:32:29;99774.47;;;5.61;100.00
21863;BME280;11096;51.338;12.524;2023-02-23T00:34:54;99773.09;;;5.71;100.00
21863;BME280;11096;51.338;12.524;2023-02-23T00:37:22;99777.47;;;5.85;100.00
21863;BME280;11096;51.338;12.524;2023-02-23T00:39:48;99776.16;;;5.94;100.00
21863;BME280;11096;51.338;12.524;2023-02-23T00:42:13;99778.97;;;5.89;100.00
21863;BME280;11096;51.338;12.524;2023-02-23T00:44:39;99780.53;;;5.92;100.00
21863;BME280;11096;51.338;12.524;2023-02-23T00:47:05;99776.16;;;5.94;100.00
21863;BME280;11096;51.338;12.524;2023-02-23T00:49:32;99776.31;;;5.91;100.00
21863;BME280;11096;51.338;12.524;2023-02-23T00:51:58;99778.28;;;5.86;100.00
21863;BME280;11096;51.338;12.524;2023-02-23T00:54:23;99777.03;;;5.93;100.00
21863;BME280;11096;51.338;12.524;2023-02-23T00:56:49;99774.72;;;5.72;100.00
21863;BME280;11096;51.338;12.524;2023-02-23T00:59:16;99766.06;;;5.73;100.00
21863;BME280;11096;51.338;12.524;2023-02-23T01:01:41;99778.00;;;5.76;100.00
21863;BME280;11096;51.338;12.524;2023-02-23T01:04:08;99775.31;;;5.77;100.00
21863;BME280;11096;51.338;12.524;2023-02-23T01:06:34;99772.50;;;5.66;100.00
21863;BME280;11096;51.338;12.524;2023-02-23T01:09:05;99776.91;;;5.64;100.00
21863;BME280;11096;51.338;12.524;2023-02-23T01:11:33;99773.41;;;5.65;100.00
21863;BME280;11096;51.338;12.524;2023-02-23T01:14:00;99773.16;;;5.70;100.00
21863;BME280;11096;51.338;12.524;2023-02-23T01:16:30;99776.50;;;5.72;100.00
21863;BME280;11096;51.338;12.524;2023-02-23T01:18:58;99775.31;;;5.77;100.00
21863;BME280;11096;51.338;12.524;2023-02-23T01:21:29;99770.16;;;5.77;100.00
21863;BME280;11096;51.338;12.524;2023-02-23T01:23:56;99780.25;;;5.66;100.00
21863;BME280;11096;51.338;12.524;2023-02-23T01:26:27;99776.81;;;5.66;100.00
21863;BME280;11096;51.338;12.524;2023-02-23T01:28:56;99771.75;;;5.64;100.00
21863;BME280;11096;51.338;12.524;2023-02-23T01:31:23;99774.34;;;5.64;100.00
21863;BME280;11096;51.338;12.524;2023-02-23T01:33:59;99771.91;;;5.61;100.00
21863;BME280;11096;51.338;12.524;2023-02-23T01:36:25;99766.59;;;5.64;100.00
21863;BME280;11096;51.338;12.524;2023-02-23T01:38:53;99768.25;;;5.65;100.00
21863;BME280;11096;51.338;12.524;2023-02-23T01:41:21;99765.50;;;5.68;100.00
21863;BME280;11096;51.338;12.524;2023-02-23T01:44:02;99768.81;;;5.70;100.00
21863;BME280;11096;51.338;12.524;2023-02-23T01:46:34;99755.03;;;5.71;100.00
21863;BME280;11096;51.338;12.524;2023-02-23T01:49:00;99757.63;;;5.71;100.00
21863;BME280;11096;51.338;12.524;2023-02-23T01:51:31;99754.03;;;5.74;100.00
21863;BME280;11096;51.338;12.524;2023-02-23T01:54:09;99755.19;;;5.68;100.00
21863;BME280;11096;51.338;12.524;2023-02-23T01:56:41;99745.03;;;5.65;100.00
21863;BME280;11096;51.338;12.524;2023-02-23T01:59:09;99742.16;;;5.71;100.00
21863;BME280;11096;51.338;12.524;2023-02-23T02:01:40;99738.81;;;5.69;100.00
21863;BME280;11096;51.338;12.524;2023-02-23T02:04:07;99737.06;;;5.70;100.00
21863;BME280;11096;51.338;12.524;2023-02-23T02:06:34;99736.88;;;5.73;100.00
21863;BME280;11096;51.338;12.524;2023-02-23T02:09:06;99739.56;;;5.71;100.00
21863;BME280;11096;51.338;12.524;2023-02-23T02:11:33;99730.09;;;5.72;100.00
21863;BME280;11096;51.338;12.524;2023-02-23T02:14:09;99734.22;;;5.74;100.00
21863;BME280;11096;51.338;12.524;2023-02-23T02:17:15;99727.25;;;5.76;100.00
21863;BME280;11096;51.338;12.524;2023-02-23T02:25:22;99719.78;;;5.72;100.00
21863;BME280;11096;51.338;12.524;2023-02-23T02:45:22;99707.53;;;5.75;100.00
21863;BME280;11096;51.338;12.524;2023-02-23T02:48:21;99715.19;;;5.77;100.00
21863;BME280;11096;51.338;12.524;2023-02-23T02:51:04;99708.09;;;5.80;100.00
21863;BME280;11096;51.338;12.524;2023-02-23T02:56:08;99708.78;;;5.84;100.00
21863;BME280;11096;51.338;12.524;2023-02-23T02:58:36;99707.41;;;5.93;100.00
21863;BME280;11096;51.338;12.524;2023-02-23T03:01:14;99706.09;;;6.01;100.00
21863;BME280;11096;51.338;12.524;2023-02-23T03:04:01;99699.94;;;6.04;100.00
21863;BME280;11096;51.338;12.524;2023-02-23T03:06:56;99695.53;;;6.06;100.00
21863;BME280;11096;51.338;12.524;2023-02-23T03:16:12;99701.28;;;6.26;100.00
21863;BME280;11096;51.338;12.524;2023-02-23T03:19:22;99702.75;;;6.30;100.00
21863;BME280;11096;51.338;12.524;2023-02-23T03:22:31;99701.53;;;6.21;100.00
21863;BME280;11096;51.338;12.524;2023-02-23T03:26:01;99707.72;;;6.18;100.00
21863;BME280;11096;51.338;12.524;2023-02-23T03:28:31;99706.88;;;6.18;100.00
21863;BME280;11096;51.338;12.524;2023-02-23T03:37:02;99710.59;;;6.28;100.00
21863;BME280;11096;51.338;12.524;2023-02-23T03:40:00;99706.81;;;6.34;100.00
21863;BME280;11096;51.338;12.524;2023-02-23T03:42:50;99704.97;;;6.36;100.00
21863;BME280;11096;51.338;12.524;2023-02-23T03:45:37;99709.03;;;6.26;100.00
21863;BME280;11096;51.338;12.524;2023-02-23T03:48:23;99709.84;;;6.26;100.00
21863;BME280;11096;51.338;12.524;2023-02-23T03:51:10;99714.94;;;6.28;100.00
21863;BME280;11096;51.338;12.524;2023-02-23T03:54:03;99714.75;;;6.31;100.00
21863;BME280;11096;51.338;12.524;2023-02-23T03:56:53;99719.25;;;6.27;100.00
21863;BME280;11096;51.338;12.524;2023-02-23T03:59:44;99721.56;;;6.32;100.00
21863;BME280;11096;51.338;12.524;2023-02-23T04:02:33;99719.72;;;6.34;100.00
21863;BME280;11096;51.338;12.524;2023-02-23T04:05:18;99725.53;;;6.37;100.00
21863;BME280;11096;51.338;12.524;2023-02-23T04:08:07;99728.28;;;6.34;100.00
21863;BME280;11096;51.338;12.524;2023-02-23T04:11:27;99734.94;;;6.38;100.00
21863;BME280;11096;51.338;12.524;2023-02-23T04:14:18;99727.00;;;6.41;100.00
21863;BME280;11096;51.338;12.524;2023-02-23T04:16:45;99727.13;;;6.40;100.00
21863;BME280;11096;51.338;12.524;2023-02-23T04:19:11;99721.09;;;6.39;100.00
21863;BME280;11096;51.338;12.524;2023-02-23T04:21:36;99720.09;;;6.42;100.00
21863;BME280;11096;51.338;12.524;2023-02-23T04:24:02;99729.41;;;6.44;100.00
21863;BME280;11096;51.338;12.524;2023-02-23T04:26:27;99726.00;;;6.44;100.00
21863;BME280;11096;51.338;12.524;2023-02-23T04:28:53;99724.91;;;6.48;100.00
21863;BME280;11096;51.338;12.524;2023-02-23T04:31:18;99719.56;;;6.51;100.00
21863;BME280;11096;51.338;12.524;2023-02-23T04:33:44;99723.91;;;6.51;100.00
21863;BME280;11096;51.338;12.524;2023-02-23T04:36:09;99726.41;;;6.52;100.00
21863;BME280;11096;51.338;12.524;2023-02-23T04:38:34;99723.72;;;6.54;100.00
21863;BME280;11096;51.338;12.524;2023-02-23T04:41:00;99734.03;;;6.54;100.00
21863;BME280;11096;51.338;12.524;2023-02-23T04:43:25;99726.22;;;6.55;100.00
21863;BME280;11096;51.338;12.524;2023-02-23T04:45:51;99728.69;;;6.57;100.00
21863;BME280;11096;51.338;12.524;2023-02-23T04:48:17;99727.69;;;6.59;100.00
21863;BME280;11096;51.338;12.524;2023-02-23T04:50:42;99726.84;;;6.59;100.00
21863;BME280;11096;51.338;12.524;2023-02-23T04:53:08;99727.03;;;6.56;100.00
21863;BME280;11096;51.338;12.524;2023-02-23T04:55:33;99729.63;;;6.56;100.00
21863;BME280;11096;51.338;12.524;2023-02-23T04:58:00;99721.63;;;6.60;100.00
21863;BME280;11096;51.338;12.524;2023-02-23T05:00:26;99727.69;;;6.59;100.00
21863;BME280;11096;51.338;12.524;2023-02-23T05:02:54;99733.06;;;6.71;100.00
21863;BME280;11096;51.338;12.524;2023-02-23T05:05:19;99731.22;;;6.73;100.00
21863;BME280;11096;51.338;12.524;2023-02-23T05:07:45;99732.66;;;6.77;100.00
21863;BME280;11096;51.338;12.524;2023-02-23T05:10:10;99738.69;;;6.77;100.00
21863;BME280;11096;51.338;12.524;2023-02-23T05:12:36;99733.06;;;6.71;100.00
21863;BME280;11096;51.338;12.524;2023-02-23T05:15:02;99727.88;;;6.71;100.00
21863;BME280;11096;51.338;12.524;2023-02-23T05:17:27;99727.69;;;6.74;100.00
21863;BME280;11096;51.338;12.524;2023-02-23T05:19:53;99726.78;;;6.75;100.00
21863;BME280;11096;51.338;12.524;2023-02-23T05:22:18;99727.63;;;6.75;100.00
21863;BME280;11096;51.338;12.524;2023-02-23T05:24:43;99720.63;;;6.77;100.00
21863;BME280;11096;51.338;12.524;2023-02-23T05:27:09;99723.81;;;6.81;100.00
21863;BME280;11096;51.338;12.524;2023-02-23T05:29:35;99715.59;;;6.74;100.00
21863;BME280;11096;51.338;12.524;2023-02-23T05:32:01;99711.38;;;6.73;100.00
21863;BME280;11096;51.338;12.524;2023-02-23T05:34:27;99707.03;;;6.74;100.00
21863;BME280;11096;51.338;12.524;2023-02-23T05:36:52;99707.16;;;6.72;100.00
21863;BME280;11096;51.338;12.524;2023-02-23T05:39:19;99711.47;;;6.72;100.00
21863;BME280;11096;51.338;12.524;2023-02-23T05:41:44;99712.31;;;6.72;100.00
21863;BME280;11096;51.338;12.524;2023-02-23T05:44:10;99723.47;;;6.73;100.00
21863;BME280;11096;51.338;12.524;2023-02-23T05:46:35;99715.16;;;6.68;100.00
21863;BME280;11096;51.338;12.524;2023-02-23T05:49:01;99719.41;;;6.69;100.00
21863;BME280;11096;51.338;12.524;2023-02-23T05:51:29;99721.41;;;6.63;100.00
21863;BME280;11096;51.338;12.524;2023-02-23T05:53:55;99720.69;;;6.61;100.00
21863;BME280;11096;51.338;12.524;2023-02-23T05:56:21;99724.94;;;6.62;100.00
21863;BME280;11096;51.338;12.524;2023-02-23T05:58:48;99719.78;;;6.62;100.00
21863;BME280;11096;51.338;12.524;2023-02-23T06:01:14;99724.19;;;6.60;100.00
21863;BME280;11096;51.338;12.524;2023-02-23T06:03:39;99726.84;;;6.59;100.00
21863;BME280;11096;51.338;12.524;2023-02-23T06:06:05;99731.38;;;6.55;100.00
21863;BME280;11096;51.338;12.524;2023-02-23T06:08:31;99730.56;;;6.55;100.00
21863;BME280;11096;51.338;12.524;2023-02-23T06:10:57;99727.22;;;6.53;100.00
21863;BME280;11096;51.338;12.524;2023-02-23T06:13:22;99728.13;;;6.52;100.00
21863;BME280;11096;51.338;12.524;2023-02-23T06:15:48;99734.88;;;6.54;100.00
21863;BME280;11096;51.338;12.524;2023-02-23T06:18:13;99732.13;;;6.57;100.00
21863;BME280;11096;51.338;12.524;2023-02-23T06:20:39;99737.84;;;6.62;100.00
21863;BME280;11096;51.338;12.524;2023-02-23T06:23:05;99740.25;;;6.65;100.00
21863;BME280;11096;51.338;12.524;2023-02-23T06:25:31;99739.22;;;6.68;100.00
21863;BME280;11096;51.338;12.524;2023-02-23T06:27:57;99740.06;;;6.69;100.00
21863;BME280;11096;51.338;12.524;2023-02-23T06:30:22;99739.88;;;6.72;100.00
21863;BME280;11096;51.338;12.524;2023-02-23T06:32:48;99743.19;;;6.74;100.00
21863;BME280;11096;51.338;12.524;2023-02-23T06:35:14;99738.56;;;6.79;100.00
21863;BME280;11096;51.338;12.524;2023-02-23T06:37:39;99746.88;;;6.84;100.00
21863;BME280;11096;51.338;12.524;2023-02-23T06:40:05;99745.03;;;6.86;100.00
21863;BME280;11096;51.338;12.524;2023-02-23T06:42:31;99748.38;;;6.88;100.00
21863;BME280;11096;51.338;12.524;2023-02-23T06:44:56;99749.31;;;6.87;100.00
21863;BME280;11096;51.338;12.524;2023-02-23T06:47:22;99755.94;;;6.91;100.00
21863;BME280;11096;51.338;12.524;2023-02-23T06:49:47;99758.34;;;6.94;100.00
21863;BME280;11096;51.338;12.524;2023-02-23T06:52:13;99754.63;;;6.98;100.00
21863;BME280;11096;51.338;12.524;2023-02-23T06:54:39;99750.03;;;7.03;100.00
21863;BME280;11096;51.338;12.524;2023-02-23T06:57:06;99756.69;;;7.07;100.00
21863;BME280;11096;51.338;12.524;2023-02-23T06:59:32;99759.81;;;7.13;100.00
21863;BME280;11096;51.338;12.524;2023-02-23T07:01:57;99768.22;;;7.16;100.00
21863;BME280;11096;51.338;12.524;2023-02-23T07:04:23;99769.31;;;7.26;100.00
21863;BME280;11096;51.338;12.524;2023-02-23T07:06:48;99763.00;;;7.30;100.00
21863;BME280;11096;51.338;12.524;2023-02-23T07:09:13;99767.91;;;7.35;100.00
21863;BME280;11096;51.338;12.524;2023-02-23T07:11:40;99763.94;;;7.44;100.00
21863;BME280;11096;51.338;12.524;2023-02-23T07:14:06;99768.63;;;7.51;100.00
21863;BME280;11096;51.338;12.524;2023-02-23T07:16:33;99766.78;;;7.53;100.00
21863;BME280;11096;51.338;12.524;2023-02-23T07:18:59;99771.66;;;7.58;100.00
21863;BME280;11096;51.338;12.524;2023-02-23T07:21:24;99778.84;;;7.67;100.00
21863;BME280;11096;51.338;12.524;2023-02-23T07:23:50;99769.13;;;7.71;100.00
21863;BME280;11096;51.338;12.524;2023-02-23T07:26:18;99774.56;;;7.81;100.00
21863;BME280;11096;51.338;12.524;2023-02-23T07:28:43;99773.63;;;7.82;100.00
21863;BME280;11096;51.338;12.524;2023-02-23T07:31:09;99781.84;;;7.88;100.00
21863;BME280;11096;51.338;12.524;2023-02-23T07:33:34;99777.28;;;7.92;100.00
21863;BME280;11096;51.338;12.524;2023-02-23T07:36:00;99781.25;;;7.98;100.00
21863;BME280;11096;51.338;12.524;2023-02-23T07:38:26;99786.84;;;8.04;100.00
21863;BME280;11096;51.338;12.524;2023-02-23T07:40:51;99789.78;;;8.12;100.00
21863;BME280;11096;51.338;12.524;2023-02-23T07:43:17;99796.41;;;8.16;100.00
21863;BME280;11096;51.338;12.524;2023-02-23T07:45:45;99787.53;;;8.21;100.00
21863;BME280;11096;51.338;12.524;2023-02-23T07:48:10;99799.34;;;8.25;100.00
21863;BME280;11096;51.338;12.524;2023-02-23T07:50:36;99790.34;;;8.30;100.00
21863;BME280;11096;51.338;12.524;2023-02-23T07:53:03;99791.09;;;8.32;100.00
21863;BME280;11096;51.338;12.524;2023-02-23T07:55:28;99790.88;;;8.35;100.00
21863;BME280;11096;51.338;12.524;2023-02-23T07:57:54;99794.50;;;8.33;100.00
21863;BME280;11096;51.338;12.524;2023-02-23T08:00:19;99801.03;;;8.38;100.00
21863;BME280;11096;51.338;12.524;2023-02-23T08:02:45;99800.84;;;8.42;100.00
21863;BME280;11096;51.338;12.524;2023-02-23T08:05:10;99792.91;;;8.45;100.00
21863;BME280;11096;51.338;12.524;2023-02-23T08:07:36;99798.81;;;8.47;100.00
21863;BME280;11096;51.338;12.524;2023-02-23T08:10:02;99807.94;;;8.52;100.00
21863;BME280;11096;51.338;12.524;2023-02-23T08:12:27;99801.00;;;8.53;100.00
21863;BME280;11096;51.338;12.524;2023-02-23T08:14:53;99801.44;;;8.59;100.00
21863;BME280;11096;51.338;12.524;2023-02-23T08:17:19;99804.63;;;8.63;100.00
21863;BME280;11096;51.338;12.524;2023-02-23T08:19:44;99812.19;;;8.66;100.00
21863;BME280;11096;51.338;12.524;2023-02-23T08:22:10;99806.91;;;8.68;100.00
21863;BME280;11096;51.338;12.524;2023-02-23T08:24:35;99797.19;;;8.71;100.00
21863;BME280;11096;51.338;12.524;2023-02-23T08:27:02;99807.13;;;8.77;100.00
21863;BME280;11096;51.338;12.524;2023-02-23T08:29:27;99800.19;;;8.78;100.00
21863;BME280;11096;51.338;12.524;2023-02-23T08:31:53;99804.16;;;8.84;100.00
21863;BME280;11096;51.338;12.524;2023-02-23T08:34:20;99803.00;;;8.88;100.00
21863;BME280;11096;51.338;12.524;2023-02-23T08:36:47;99806.94;;;8.93;100.00
21863;BME280;11096;51.338;12.524;2023-02-23T08:39:12;99803.94;;;8.99;100.00
21863;BME280;11096;51.338;12.524;2023-02-23T08:41:38;99806.53;;;8.99;100.00
21863;BME280;11096;51.338;12.524;2023-02-23T08:44:04;99806.00;;;9.07;100.00
21863;BME280;11096;51.338;12.524;2023-02-23T08:46:29;99812.44;;;9.14;100.00
21863;BME280;11096;51.338;12.524;2023-02-23T08:48:55;99814.91;;;9.29;100.00
21863;BME280;11096;51.338;12.524;2023-02-23T08:51:21;99817.91;;;9.35;100.00
21863;BME280;11096;51.338;12.524;2023-02-23T08:53:47;99816.44;;;9.44;100.00
21863;BME280;11096;51.338;12.524;2023-02-23T08:56:12;99814.25;;;9.51;100.00
21863;BME280;11096;51.338;12.524;2023-02-23T08:58:40;99820.47;;;9.61;100.00
21863;BME280;11096;51.338;12.524;2023-02-23T09:01:05;99810.75;;;9.76;100.00
21863;BME280;11096;51.338;12.524;2023-02-23T09:03:32;99816.03;;;9.87;100.00
21863;BME280;11096;51.338;12.524;2023-02-23T09:06:10;99806.75;;;9.96;100.00
21863;BME280;11096;51.338;12.524;2023-02-23T09:08:37;99806.19;;;10.03;100.00
21863;BME280;11096;51.338;12.524;2023-02-23T09:11:04;99810.72;;;10.13;100.00
21863;BME280;11096;51.338;12.524;2023-02-23T09:13:29;99801.31;;;10.23;100.00
21863;BME280;11096;51.338;12.524;2023-02-23T09:15:55;99805.56;;;10.37;100.00
21863;BME280;11096;51.338;12.524;2023-02-23T09:18:20;99809.06;;;10.36;100.00
21863;BME280;11096;51.338;12.524;2023-02-23T09:20:48;99804.25;;;10.42;100.00
21863;BME280;11096;51.338;12.524;2023-02-23T09:23:14;99802.97;;;10.37;100.00
21863;BME280;11096;51.338;12.524;2023-02-23T09:25:43;99803.28;;;10.32;99.66
21863;BME280;11096;51.338;12.524;2023-02-23T09:28:17;99812.28;;;10.39;99.98
21863;BME280;11096;51.338;12.524;2023-02-23T09:30:44;99810.75;;;10.37;100.00
21863;BME280;11096;51.338;12.524;2023-02-23T09:33:10;99813.38;;;10.48;100.00
21863;BME280;11096;51.338;12.524;2023-02-23T09:35:36;99807.16;;;10.62;100.00
21863;BME280;11096;51.338;12.524;2023-02-23T09:38:03;99815.34;;;10.80;100.00
21863;BME280;11096;51.338;12.524;2023-02-23T09:40:35;99811.38;;;10.98;98.58
21863;BME280;11096;51.338;12.524;2023-02-23T09:48:38;99810.31;;;11.23;95.78
21863;BME280;11096;51.338;12.524;2023-02-23T09:51:06;99810.97;;;11.81;94.31
21863;BME280;11096;51.338;12.524;2023-02-23T09:53:49;99813.66;;;12.35;91.52
21863;BME280;11096;51.338;12.524;2023-02-23T09:56:33;99817.38;;;12.53;89.30
21863;BME280;11096;51.338;12.524;2023-02-23T09:59:01;99813.22;;;12.30;87.64
21863;BME280;11096;51.338;12.524;2023-02-23T10:05:03;99823.59;;;12.41;85.93
21863;BME280;11096;51.338;12.524;2023-02-23T10:07:49;99815.97;;;12.28;85.34
21863;BME280;11096;51.338;12.524;2023-02-23T10:10:26;99822.22;;;12.58;85.33
21863;BME280;11096;51.338;12.524;2023-02-23T10:15:51;99814.91;;;12.73;82.53
21863;BME280;11096;51.338;12.524;2023-02-23T10:23:28;99821.56;;;13.07;82.42
21863;BME280;11096;51.338;12.524;2023-02-23T10:25:57;99821.78;;;13.46;80.04
21863;BME280;11096;51.338;12.524;2023-02-23T10:28:25;99815.53;;;13.07;79.33
21863;BME280;11096;51.338;12.524;2023-02-23T10:30:53;99812.97;;;13.47;80.36
21863;BME280;11096;51.338;12.524;2023-02-23T10:33:25;99816.78;;;13.43;78.66
21863;BME280;11096;51.338;12.524;2023-02-23T10:35:59;99811.47;;;13.24;80.26
21863;BME280;11096;51.338;12.524;2023-02-23T10:38:26;99818.47;;;13.44;80.27
21863;BME280;11096;51.338;12.524;2023-02-23T10:40:55;99818.97;;;13.79;79.37
21863;BME280;11096;51.338;12.524;2023-02-23T10:43:21;99814.16;;;13.84;79.24
21863;BME280;11096;51.338;12.524;2023-02-23T10:45:50;99820.78;;;14.07;77.76
21863;BME280;11096;51.338;12.524;2023-02-23T10:48:19;99814.00;;;13.75;77.45
21863;BME280;11096;51.338;12.524;2023-02-23T10:50:47;99818.53;;;13.73;78.37
21863;BME280;11096;51.338;12.524;2023-02-23T10:53:23;99820.91;;;13.96;76.83
21863;BME280;11096;51.338;12.524;2023-02-23T10:56:06;99812.13;;;14.46;76.30
21863;BME280;11096;51.338;12.524;2023-02-23T11:01:15;99810.91;;;14.50;73.87
21863;BME280;11096;51.338;12.524;2023-02-23T11:03:48;99801.50;;;14.76;74.37
21863;BME280;11096;51.338;12.524;2023-02-23T11:06:33;99803.19;;;14.38;72.69
21863;BME280;11096;51.338;12.524;2023-02-23T11:09:21;99793.53;;;14.49;72.66
21863;BME280;11096;51.338;12.524;2023-02-23T11:12:00;99791.63;;;14.12;74.27
21863;BME280;11096;51.338;12.524;2023-02-23T11:14:28;99793.84;;;14.16;75.08
21863;BME280;11096;51.338;12.524;2023-02-23T11:16:58;99793.16;;;14.53;73.10
21863;BME280;11096;51.338;12.524;2023-02-23T11:19:35;99785.56;;;14.79;72.88
21863;BME280;11096;51.338;12.524;2023-02-23T11:22:03;99777.72;;;14.70;72.51
21863;BME280;11096;51.338;12.524;2023-02-23T11:24:34;99778.16;;;14.36;72.31
21863;BME280;11096;51.338;12.524;2023-02-23T11:27:02;99786.69;;;14.67;72.45
21863;BME280;11096;51.338;12.524;2023-02-23T11:29:40;99778.63;;;15.25;70.94
21863;BME280;11096;51.338;12.524;2023-02-23T11:32:08;99777.28;;;14.84;68.48
21863;BME280;11096;51.338;12.524;2023-02-23T11:34:38;99771.97;;;15.03;69.40
21863;BME280;11096;51.338;12.524;2023-02-23T11:37:19;99772.63;;;14.68;69.77
21863;BME280;11096;51.338;12.524;2023-02-23T11:39:51;99769.00;;;14.89;70.77
21863;BME280;11096;51.338;12.524;2023-02-23T11:42:22;99772.09;;;14.35;70.54
21863;BME280;11096;51.338;12.524;2023-02-23T11:45:13;99770.56;;;14.52;71.84
21863;BME280;11096;51.338;12.524;2023-02-23T11:47:43;99759.19;;;14.53;70.49
21863;BME280;11096;51.338;12.524;2023-02-23T11:50:23;99760.44;;;14.10;71.07
21863;BME280;11096;51.338;12.524;2023-02-23T11:53:00;99754.09;;;14.23;70.82
21863;BME280;11096;51.338;12.524;2023-02-23T11:55:29;99758.47;;;14.22;70.71
21863;BME280;11096;51.338;12.524;2023-02-23T12:00:58;99750.97;;;14.86;69.21
21863;BME280;11096;51.338;12.524;2023-02-23T12:03:25;99759.56;;;15.06;68.54
21863;BME280;11096;51.338;12.524;2023-02-23T12:05:54;99751.72;;;14.68;69.22
21863;BME280;11096;51.338;12.524;2023-02-23T12:08:36;99754.69;;;14.83;68.57
21863;BME280;11096;51.338;12.524;2023-02-23T12:11:09;99746.78;;;14.55;69.31
21863;BME280;11096;51.338;12.524;2023-02-23T12:14:04;99753.38;;;14.50;70.59
21863;BME280;11096;51.338;12.524;2023-02-23T12:19:18;99749.81;;;14.60;69.89
21863;BME280;11096;51.338;12.524;2023-02-23T12:21:57;99748.72;;;14.53;70.11
21863;BME280;11096;51.338;12.524;2023-02-23T12:24:49;99748.19;;;14.21;70.06
21863;BME280;11096;51.338;12.524;2023-02-23T12:27:23;99745.97;;;14.35;69.42
21863;BME280;11096;51.338;12.524;2023-02-23T12:32:47;99742.66;;;14.24;70.40
21863;BME280;11096;51.338;12.524;2023-02-23T12:37:57;99748.16;;;13.72;71.06
21863;BME280;11096;51.338;12.524;2023-02-23T12:40:31;99742.94;;;13.72;71.32
21863;BME280;11096;51.338;12.524;2023-02-23T12:43:31;99741.03;;;13.84;70.97
21863;BME280;11096;51.338;12.524;2023-02-23T12:46:12;99740.19;;;14.03;71.14
21863;BME280;11096;51.338;12.524;2023-02-23T12:51:20;99738.28;;;14.05;70.28
21863;BME280;11096;51.338;12.524;2023-02-23T12:53:46;99742.81;;;13.93;70.37
21863;BME280;11096;51.338;12.524;2023-02-23T12:56:38;99730.03;;;14.09;70.17
21863;BME280;11096;51.338;12.524;2023-02-23T13:01:55;99735.53;;;14.06;70.18
21863;BME280;11096;51.338;12.524;2023-02-23T13:07:38;99734.41;;;13.70;71.15
21863;BME280;11096;51.338;12.524;2023-02-23T13:10:12;99731.28;;;13.76;71.52
21863;BME280;11096;51.338;12.524;2023-02-23T13:15:44;99732.34;;;13.54;72.06
21863;BME280;11096;51.338;12.524;2023-02-23T13:18:28;99731.66;;;13.62;72.08
21863;BME280;11096;51.338;12.524;2023-02-23T13:23:40;99728.75;;;13.05;72.78
21863;BME280;11096;51.338;12.524;2023-02-23T13:29:04;99729.44;;;13.17;74.55
21863;BME280;11096;51.338;12.524;2023-02-23T13:31:34;99725.13;;;12.96;74.47
21863;BME280;11096;51.338;12.524;2023-02-23T13:34:02;99725.81;;;12.98;74.29
21863;BME280;11096;51.338;12.524;2023-02-23T13:36:30;99730.88;;;12.90;74.11
21863;BME280;11096;51.338;12.524;2023-02-23T13:50:41;99726.13;;;12.74;75.81
21863;BME280;11096;51.338;12.524;2023-02-23T13:53:42;99718.69;;;12.70;76.14
21863;BME280;11096;51.338;12.524;2023-02-23T13:56:16;99717.38;;;12.75;76.63
21863;BME280;11096;51.338;12.524;2023-02-23T13:59:06;99718.22;;;12.85;76.59
21863;BME280;11096;51.338;12.524;2023-02-23T14:01:41;99717.66;;;12.82;75.93
21863;BME280;11096;51.338;12.524;2023-02-23T14:04:34;99720.94;;;12.84;75.86
21863;BME280;11096;51.338;12.524;2023-02-23T14:07:15;99714.59;;;12.77;75.77
21863;BME280;11096;51.338;12.524;2023-02-23T14:09:55;99719.44;;;12.81;75.94
21863;BME280;11096;51.338;12.524;2023-02-23T14:14:48;99717.13;;;12.88;75.49
21863;BME280;11096;51.338;12.524;2023-02-23T14:22:17;99715.22;;;12.90;75.52
21863;BME280;11096;51.338;12.524;2023-02-23T14:25:03;99706.00;;;12.86;75.99
21863;BME280;11096;51.338;12.524;2023-02-23T14:27:40;99712.47;;;12.92;76.41
21863;BME280;11096;51.338;12.524;2023-02-23T14:32:43;99710.41;;;12.85;77.52
21863;BME280;11096;51.338;12.524;2023-02-23T14:38:43;99715.19;;;12.80;77.84
21863;BME280;11096;51.338;12.524;2023-02-23T14:40:46;99714.59;;;12.77;78.41
21863;BME280;11096;51.338;12.524;2023-02-23T14:46:00;99704.97;;;12.67;78.35
21863;BME280;11096;51.338;12.524;2023-02-23T14:48:30;99711.22;;;12.55;78.94
21863;BME280;11096;51.338;12.524;2023-02-23T14:51:21;99705.25;;;12.74;78.61
21863;BME280;11096;51.338;12.524;2023-02-23T14:53:48;99707.97;;;12.63;77.80
21863;BME280;11096;51.338;12.524;2023-02-23T14:56:21;99703.56;;;12.63;78.35
21863;BME280;11096;51.338;12.524;2023-02-23T14:58:52;99699.75;;;12.67;78.32
21863;BME280;11096;51.338;12.524;2023-02-23T15:01:50;99690.44;;;12.75;78.55
21863;BME280;11096;51.338;12.524;2023-02-23T15:04:18;99696.13;;;12.80;78.35